Time;durP1;ratioP1;P1;durP2;ratioP2;P2;SDS_P1;SDS_P2;PMS_P1;PMS_P2;Temp;Humidity;BMP_temperature;BMP_pressure;BME280_temperature;BME280_humidity;BME280_pressure;Samples;Min_cycle;Max_cycle;Signal;HPM_P1;HPM_P2
2023/09/10 00:01:32;;;;;;;26.98;19.02;;;20.40;99.90;;;;;;4231533;28;20555;-82
2023/09/10 00:03:33;;;;;;;30.77;20.67;;;20.40;99.90;;;;;;4232130;28;20098;-82
2023/09/10 00:05:34;;;;;;;28.55;20.23;;;20.40;99.90;;;;;;4231660;28;20437;-83
2023/09/10 00:07:35;;;;;;;30.90;20.42;;;20.30;99.90;;;;;;4213765;28;20123;-83
2023/09/10 00:09:36;;;;;;;27.35;19.02;;;20.30;99.90;;;;;;4212994;28;20055;-83
2023/09/10 00:11:36;;;;;;;28.42;20.08;;;20.30;99.90;;;;;;4213700;28;20593;-83
2023/09/10 00:13:38;;;;;;;26.52;19.00;;;20.30;99.90;;;;;;4231418;28;20044;-83
2023/09/10 00:15:39;;;;;;;29.70;19.35;;;20.30;99.90;;;;;;4231444;28;20530;-83
2023/09/10 00:17:40;;;;;;;29.70;19.63;;;20.30;99.90;;;;;;4231518;28;20063;-83
2023/09/10 00:19:41;;;;;;;24.25;17.48;;;20.20;99.90;;;;;;4231252;28;20031;-83
2023/09/10 00:21:42;;;;;;;26.20;18.50;;;20.20;99.90;;;;;;4231784;28;20062;-83
2023/09/10 00:23:43;;;;;;;25.80;17.77;;;20.10;99.90;;;;;;4231738;28;20093;-83
2023/09/10 00:25:44;;;;;;;29.15;20.63;;;20.10;99.90;;;;;;4232196;28;20043;-83
2023/09/10 00:27:44;;;;;;;31.42;19.55;;;20.10;99.90;;;;;;4231408;28;20369;-83
2023/09/10 00:29:45;;;;;;;29.08;20.08;;;20.10;99.90;;;;;;4231951;28;20120;-83
2023/09/10 00:31:46;;;;;;;28.77;19.10;;;20.10;99.90;;;;;;4213372;28;20044;-83
2023/09/10 00:33:47;;;;;;;26.52;20.30;;;20.00;99.90;;;;;;4231810;28;20040;-83
2023/09/10 00:35:48;;;;;;;28.27;18.75;;;20.00;99.90;;;;;;4231500;28;20039;-83
2023/09/10 00:37:49;;;;;;;27.17;18.23;;;19.90;99.90;;;;;;4196611;28;20053;-83
2023/09/10 00:39:49;;;;;;;25.42;18.23;;;19.90;99.90;;;;;;4231172;28;20073;-83
2023/09/10 00:41:53;;;;;;;26.42;18.35;;;19.80;99.90;;;;;;4231675;28;20039;-83
2023/09/10 00:43:54;;;;;;;26.10;18.58;;;19.80;99.90;;;;;;4231842;28;20043;-83
2023/09/10 00:45:55;;;;;;;26.50;16.95;;;19.80;99.90;;;;;;4231675;28;20039;-83
2023/09/10 00:47:56;;;;;;;26.30;18.83;;;19.80;99.90;;;;;;4213215;28;20051;-83
2023/09/10 00:49:58;;;;;;;27.63;18.48;;;19.80;99.90;;;;;;4214366;28;20511;-83
2023/09/10 00:52:04;;;;;;;26.67;18.27;;;19.80;99.90;;;;;;4213691;28;20424;-83
2023/09/10 00:54:05;;;;;;;25.48;18.40;;;19.70;99.90;;;;;;4232236;28;20048;-82
2023/09/10 00:56:06;;;;;;;28.95;19.10;;;19.70;99.90;;;;;;4232326;28;20039;-83
2023/09/10 00:58:08;;;;;;;27.33;18.42;;;19.70;99.90;;;;;;4231890;28;20036;-83
2023/09/10 01:00:12;;;;;;;29.45;19.23;;;19.70;99.90;;;;;;4233048;28;20039;-83
2023/09/10 01:02:14;;;;;;;27.40;18.95;;;19.70;99.90;;;;;;4232126;28;20040;-82
2023/09/10 01:04:15;;;;;;;25.88;17.98;;;19.70;99.90;;;;;;4214324;28;20539;-83
2023/09/10 01:06:16;;;;;;;27.63;18.05;;;19.70;99.90;;;;;;4231861;28;20048;-82
2023/09/10 01:08:17;;;;;;;27.45;18.63;;;19.70;99.90;;;;;;4231831;28;20476;-82
2023/09/10 01:10:25;;;;;;;28.40;19.25;;;19.70;99.90;;;;;;4231371;28;20051;-83
2023/09/10 01:12:52;;;;;;;28.42;18.35;;;19.50;99.90;;;;;;4233164;28;20043;-83
2023/09/10 01:14:59;;;;;;;26.17;17.98;;;19.70;99.90;;;;;;4234774;28;20043;-83
2023/09/10 01:17:06;;;;;;;28.48;20.50;;;19.60;99.90;;;;;;4235713;28;20044;-83
2023/09/10 01:19:34;;;;;;;29.52;20.73;;;20.60;99.90;;;;;;4235324;28;20044;-83
2023/09/10 01:21:41;;;;;;;26.95;18.80;;;19.50;99.90;;;;;;4213682;28;20048;-83
2023/09/10 01:24:04;;;;;;;28.25;19.17;;;19.50;99.90;;;;;;4241714;28;20039;-83
2023/09/10 01:26:05;;;;;;;25.30;17.73;;;19.40;99.90;;;;;;4216066;28;20131;-83
2023/09/10 01:28:06;;;;;;;26.52;18.77;;;19.40;99.90;;;;;;4218303;28;20043;-83
2023/09/10 01:30:09;;;;;;;27.60;19.27;;;19.40;99.90;;;;;;4250622;28;20302;-83
2023/09/10 01:32:31;;;;;;;30.25;19.88;;;19.40;99.90;;;;;;4233421;28;20056;-83
2023/09/10 01:34:36;;;;;;;30.00;20.00;;;19.40;99.90;;;;;;4254655;28;20040;-83
2023/09/10 01:36:45;;;;;;;33.03;21.73;;;19.30;99.90;;;;;;4267748;28;20096;-82
2023/09/10 01:39:14;;;;;;;31.10;20.70;;;19.40;99.90;;;;;;4268792;28;20101;-82
2023/09/10 01:41:20;;;;;;;34.20;23.70;;;19.30;99.90;;;;;;4268258;28;20027;-83
2023/09/10 01:43:21;;;;;;;34.70;22.63;;;19.30;99.90;;;;;;4232851;28;20043;-83
2023/09/10 01:45:23;;;;;;;35.60;24.88;;;19.30;99.90;;;;;;4247680;28;20039;-83
2023/09/10 01:47:24;;;;;;;32.55;21.80;;;19.30;99.90;;;;;;4229722;28;20042;-83
2023/09/10 01:49:25;;;;;;;37.88;25.73;;;19.40;99.90;;;;;;4229671;28;20048;-83
2023/09/10 01:51:26;;;;;;;38.63;24.30;;;19.40;99.90;;;;;;4229926;28;20045;-83
2023/09/10 01:53:27;;;;;;;35.28;22.80;;;19.30;99.90;;;;;;4247769;28;20153;-83
2023/09/10 01:55:27;;;;;;;33.33;21.88;;;20.10;99.90;;;;;;4229506;28;20518;-83
2023/09/10 01:57:28;;;;;;;35.20;22.95;;;19.30;99.90;;;;;;4247610;28;20047;-83
2023/09/10 01:59:29;;;;;;;36.05;23.30;;;19.30;99.90;;;;;;4247810;28;20042;-83
2023/09/10 02:01:29;;;;;;;34.47;22.17;;;19.30;99.90;;;;;;4229681;28;20157;-83
2023/09/10 02:03:30;;;;;;;33.45;22.63;;;19.30;99.90;;;;;;4230230;28;20047;-83
2023/09/10 02:05:31;;;;;;;32.95;22.38;;;19.30;99.90;;;;;;4250753;27;20100;-83
2023/09/10 02:07:32;;;;;;;34.08;22.17;;;19.20;99.90;;;;;;4232043;28;20044;-83
2023/09/10 02:09:33;;;;;;;36.50;22.67;;;19.30;99.90;;;;;;4250762;27;20042;-83
2023/09/10 02:11:34;;;;;;;32.75;21.95;;;19.30;99.90;;;;;;4250586;27;20084;-83
2023/09/10 02:13:34;;;;;;;35.42;22.85;;;19.30;99.90;;;;;;4250813;27;20039;-83
2023/09/10 02:15:36;;;;;;;36.53;22.15;;;19.20;99.90;;;;;;4232130;28;20047;-83
2023/09/10 02:17:37;;;;;;;31.27;22.10;;;19.30;99.90;;;;;;4250563;27;20043;-83
2023/09/10 02:19:37;;;;;;;29.92;20.27;;;19.20;99.90;;;;;;4250216;27;20061;-83
2023/09/10 02:21:38;;;;;;;32.88;22.42;;;19.20;99.90;;;;;;4232131;28;20040;-83
2023/09/10 02:23:44;;;;;;;31.05;21.50;;;19.30;99.90;;;;;;4250499;27;20604;-83
2023/09/10 02:25:44;;;;;;;31.77;22.27;;;19.30;99.90;;;;;;4250106;27;20101;-83
2023/09/10 02:27:45;;;;;;;31.63;21.25;;;19.30;99.90;;;;;;4250383;27;20454;-83
2023/09/10 02:29:46;;;;;;;31.17;19.83;;;19.20;99.90;;;;;;4250047;27;20058;-83
2023/09/10 02:31:46;;;;;;;31.73;20.00;;;19.20;99.90;;;;;;4250207;27;20094;-83
2023/09/10 02:33:47;;;;;;;33.85;21.35;;;19.20;99.90;;;;;;4250298;27;20090;-83
2023/09/10 02:35:48;;;;;;;29.58;20.13;;;19.20;99.90;;;;;;4249984;27;20075;-83
2023/09/10 02:37:49;;;;;;;27.05;18.85;;;19.10;99.90;;;;;;4250304;27;20050;-83
2023/09/10 02:39:50;;;;;;;31.13;20.05;;;19.10;99.90;;;;;;4250339;27;20095;-83
2023/09/10 02:41:51;;;;;;;27.85;19.88;;;19.10;99.90;;;;;;4250223;27;20119;-83
2023/09/10 02:43:51;;;;;;;30.77;20.00;;;19.10;99.90;;;;;;4231799;28;20042;-83
2023/09/10 02:45:52;;;;;;;29.92;19.52;;;19.00;99.90;;;;;;4249854;27;20049;-84
2023/09/10 02:47:53;;;;;;;30.08;18.75;;;19.00;99.90;;;;;;4250190;27;20129;-83
2023/09/10 02:49:54;;;;;;;25.52;17.38;;;19.00;99.90;;;;;;4231787;28;20058;-83
2023/09/10 02:51:55;;;;;;;23.75;16.30;;;18.90;99.90;;;;;;4249609;27;20035;-83
2023/09/10 02:53:55;;;;;;;23.13;15.32;;;18.90;99.90;;;;;;4231755;28;20054;-83
2023/09/10 02:56:00;;;;;;;26.45;17.95;;;18.90;99.90;;;;;;4250003;27;20452;-83
2023/09/10 02:58:01;;;;;;;24.90;16.25;;;18.90;99.90;;;;;;4231666;28;20479;-83
2023/09/10 03:00:04;;;;;;;23.38;15.52;;;18.80;99.90;;;;;;4249998;27;20054;-83
2023/09/10 03:02:04;;;;;;;23.63;15.57;;;18.80;99.90;;;;;;4249972;27;20459;-83
2023/09/10 03:04:05;;;;;;;25.10;16.42;;;18.80;99.90;;;;;;4249527;27;20039;-83
2023/09/10 03:06:13;;;;;;;24.42;15.55;;;18.70;99.90;;;;;;4249888;27;20047;-83
2023/09/10 03:08:13;;;;;;;24.05;16.00;;;18.70;99.90;;;;;;4249839;27;20043;-83
2023/09/10 03:10:14;;;;;;;26.10;15.98;;;18.70;99.90;;;;;;4231298;28;20058;-83
2023/09/10 03:12:28;;;;;;;24.92;15.10;;;18.60;99.90;;;;;;4249393;27;20504;-83
2023/09/10 03:14:29;;;;;;;25.98;17.90;;;18.30;99.90;;;;;;4249598;27;20071;-83
2023/09/10 03:16:29;;;;;;;27.77;17.73;;;18.60;99.90;;;;;;4249183;27;20055;-83
2023/09/10 03:18:30;;;;;;;25.70;17.10;;;18.60;99.90;;;;;;4249701;27;20027;-83
2023/09/10 03:20:31;;;;;;;22.77;15.95;;;18.60;99.90;;;;;;4232055;28;20039;-83
2023/09/10 03:22:32;;;;;;;24.63;17.35;;;18.50;99.90;;;;;;4250016;27;20091;-83
2023/09/10 03:24:37;;;;;;;30.17;19.15;;;18.50;99.90;;;;;;4231442;28;20040;-82
2023/09/10 03:26:38;;;;;;;24.48;17.35;;;18.40;99.90;;;;;;4249655;27;20088;-83
2023/09/10 03:28:39;;;;;;;25.00;16.88;;;18.50;99.90;;;;;;4230816;28;20043;-83
2023/09/10 03:30:40;;;;;;;25.23;16.13;;;18.40;99.90;;;;;;4231360;28;20047;-83
2023/09/10 03:32:41;;;;;;;26.05;16.92;;;18.40;99.90;;;;;;4249010;27;20047;-82
2023/09/10 03:34:42;;;;;;;23.98;16.38;;;18.40;99.90;;;;;;4245227;27;20046;-82
2023/09/10 03:36:42;;;;;;;23.50;14.98;;;18.40;99.90;;;;;;4231782;28;20054;-83
2023/09/10 03:38:44;;;;;;;21.10;14.82;;;18.40;99.90;;;;;;4232080;28;20507;-83
2023/09/10 03:40:45;;;;;;;24.67;15.55;;;18.40;99.90;;;;;;4232230;28;20093;-83
2023/09/10 03:42:45;;;;;;;23.13;15.45;;;18.40;99.90;;;;;;4232083;28;20031;-83
2023/09/10 03:44:46;;;;;;;23.30;15.43;;;18.40;99.90;;;;;;4232319;28;20043;-84
2023/09/10 03:46:47;;;;;;;23.02;15.50;;;18.30;99.90;;;;;;4214098;28;20127;-84
2023/09/10 03:48:48;;;;;;;20.63;14.30;;;18.30;99.90;;;;;;4213876;28;20047;-84
2023/09/10 03:50:49;;;;;;;22.65;14.85;;;18.30;99.90;;;;;;4231482;28;20086;-84
2023/09/10 03:52:50;;;;;;;23.98;14.20;;;18.20;99.90;;;;;;4232058;28;20128;-85
2023/09/10 03:54:51;;;;;;;23.73;13.95;;;18.20;99.90;;;;;;4245884;27;20046;-84
2023/09/10 03:56:52;;;;;;;24.25;15.00;;;18.20;99.90;;;;;;4249015;27;20039;-84
2023/09/10 03:58:52;;;;;;;19.13;13.88;;;18.20;99.90;;;;;;4248974;27;20047;-84
2023/09/10 04:00:53;;;;;;;20.40;13.40;;;18.20;99.90;;;;;;4248909;27;20039;-84
2023/09/10 04:02:54;;;;;;;18.33;12.20;;;18.10;99.90;;;;;;4230298;28;20058;-83
2023/09/10 04:04:55;;;;;;;14.80;10.98;;;18.10;99.90;;;;;;4248310;27;20471;-84
2023/09/10 04:06:56;;;;;;;17.52;11.80;;;18.00;99.90;;;;;;4248783;27;20559;-84
2023/09/10 04:08:56;;;;;;;16.27;11.57;;;18.00;99.90;;;;;;4248533;27;20043;-84
2023/09/10 04:10:57;;;;;;;15.88;11.25;;;18.00;99.90;;;;;;4248719;27;20035;-84
2023/09/10 04:12:58;;;;;;;19.02;11.55;;;17.90;99.90;;;;;;4248398;27;20039;-84
2023/09/10 04:14:59;;;;;;;16.60;10.43;;;17.80;99.90;;;;;;4248558;27;20139;-84
2023/09/10 04:17:00;;;;;;;17.25;12.10;;;17.00;99.90;;;;;;4248561;27;20090;-84
2023/09/10 04:19:00;;;;;;;16.17;11.77;;;17.80;99.90;;;;;;4248543;27;20451;-84
2023/09/10 04:21:04;;;;;;;17.92;13.15;;;17.80;99.90;;;;;;4230172;28;20074;-84
2023/09/10 04:23:05;;;;;;;17.40;12.48;;;17.70;99.90;;;;;;4230569;28;20871;-84
2023/09/10 04:25:06;;;;;;;18.60;12.43;;;17.70;99.90;;;;;;4248557;27;20070;-84
2023/09/10 04:27:07;;;;;;;18.58;12.85;;;17.60;99.90;;;;;;4229846;28;20955;-84
2023/09/10 04:29:08;;;;;;;18.92;12.10;;;17.60;99.90;;;;;;4230166;28;20079;-84
2023/09/10 04:31:13;;;;;;;19.98;11.20;;;17.60;99.90;;;;;;4229942;28;20333;-84
2023/09/10 04:33:16;;;;;;;16.50;11.95;;;17.60;99.90;;;;;;4247968;27;20043;-84
2023/09/10 04:35:17;;;;;;;16.52;12.00;;;17.60;99.90;;;;;;4241880;27;20035;-84
2023/09/10 04:37:18;;;;;;;18.60;12.63;;;17.60;99.90;;;;;;4248236;27;20046;-84
2023/09/10 04:39:19;;;;;;;17.00;12.85;;;18.60;99.90;;;;;;4229951;28;20054;-84
2023/09/10 04:41:20;;;;;;;18.58;12.48;;;17.60;99.90;;;;;;4242396;27;20028;-84
2023/09/10 04:43:21;;;;;;;17.20;12.02;;;17.60;99.90;;;;;;4212460;28;20101;-84
2023/09/10 04:45:21;;;;;;;18.67;12.55;;;17.50;99.90;;;;;;4231058;28;20047;-84
2023/09/10 04:47:22;;;;;;;18.50;12.80;;;17.60;99.90;;;;;;4213440;28;20044;-84
2023/09/10 04:49:23;;;;;;;21.00;13.20;;;17.50;99.90;;;;;;4231243;28;20445;-84
2023/09/10 04:51:24;;;;;;;17.55;12.27;;;17.50;99.90;;;;;;4230926;28;20080;-84
2023/09/10 04:53:25;;;;;;;14.88;11.07;;;17.50;99.90;;;;;;4230432;28;20039;-84
2023/09/10 04:55:26;;;;;;;12.88;10.07;;;17.40;99.90;;;;;;4212841;28;20052;-84
2023/09/10 04:57:27;;;;;;;14.02;10.45;;;17.40;99.90;;;;;;4231122;28;20062;-84
2023/09/10 04:59:27;;;;;;;11.90;9.52;;;17.40;99.90;;;;;;4230794;28;20032;-84
2023/09/10 05:01:28;;;;;;;10.27;8.20;;;17.40;99.90;;;;;;4213352;28;20040;-84
2023/09/10 05:03:29;;;;;;;9.68;8.23;;;17.30;99.90;;;;;;4231099;28;20104;-84
2023/09/10 05:05:30;;;;;;;11.32;9.50;;;17.30;99.90;;;;;;4240672;28;20046;-84
2023/09/10 05:07:31;;;;;;;10.43;8.27;;;17.20;99.90;;;;;;4229920;28;20185;-84
2023/09/10 05:09:31;;;;;;;10.73;8.95;;;17.20;99.90;;;;;;4230157;28;20482;-84
2023/09/10 05:11:32;;;;;;;11.30;9.50;;;17.10;99.90;;;;;;4229994;28;20035;-84
2023/09/10 05:13:38;;;;;;;10.48;9.38;;;17.10;99.90;;;;;;4229322;28;20047;-84
2023/09/10 05:15:39;;;;;;;11.60;9.85;;;17.10;99.90;;;;;;4247876;27;20059;-84
2023/09/10 05:17:40;;;;;;;14.18;10.18;;;17.10;99.90;;;;;;4247788;28;20047;-84
2023/09/10 05:19:42;;;;;;;13.32;9.43;;;17.00;99.90;;;;;;4248044;28;20039;-84
2023/09/10 05:21:43;;;;;;;12.65;9.98;;;17.10;99.90;;;;;;4229153;28;20443;-84
2023/09/10 05:23:44;;;;;;;12.63;10.20;;;17.10;99.90;;;;;;4247711;28;20043;-84
2023/09/10 05:25:45;;;;;;;11.90;9.20;;;17.10;99.90;;;;;;4229921;28;20043;-84
2023/09/10 05:27:47;;;;;;;10.80;9.02;;;17.10;99.90;;;;;;4248093;28;20043;-84
2023/09/10 05:29:48;;;;;;;10.40;8.38;;;17.10;99.90;;;;;;4225588;28;20124;-84
2023/09/10 05:31:49;;;;;;;9.82;8.75;;;17.10;99.90;;;;;;4230652;28;20039;-84
2023/09/10 05:33:50;;;;;;;10.45;9.00;;;17.10;99.90;;;;;;4230246;28;20212;-84
2023/09/10 05:35:58;;;;;;;9.82;8.30;;;17.10;99.90;;;;;;4230921;28;20440;-83
2023/09/10 05:37:58;;;;;;;13.32;10.15;;;17.10;99.90;;;;;;4230660;28;20058;-84
2023/09/10 05:39:59;;;;;;;12.95;10.43;;;17.10;99.90;;;;;;4233972;28;20483;-84
2023/09/10 05:42:00;;;;;;;14.23;11.15;;;17.10;99.90;;;;;;4215401;28;20123;-83
2023/09/10 05:44:01;;;;;;;15.60;11.75;;;17.00;99.90;;;;;;4234128;28;20491;-83
2023/09/10 05:46:01;;;;;;;15.07;11.77;;;17.00;99.90;;;;;;4233788;28;20044;-84
2023/09/10 05:48:02;;;;;;;16.23;12.27;;;17.00;99.90;;;;;;4233685;28;20456;-84
2023/09/10 05:50:04;;;;;;;15.98;12.30;;;17.00;99.90;;;;;;4233697;28;20509;-84
2023/09/10 05:52:05;;;;;;;17.70;13.13;;;17.10;99.90;;;;;;4234070;28;20480;-84
2023/09/10 05:54:05;;;;;;;17.45;13.20;;;17.10;99.90;;;;;;4215541;28;20051;-83
2023/09/10 05:56:06;;;;;;;18.67;14.30;;;17.10;99.90;;;;;;4233871;28;20044;-84
2023/09/10 05:58:11;;;;;;;19.98;14.32;;;17.10;99.90;;;;;;4233621;28;20082;-83
2023/09/10 06:00:13;;;;;;;21.13;15.15;;;17.10;99.90;;;;;;4216269;28;20126;-84
2023/09/10 06:02:13;;;;;;;19.23;14.27;;;17.10;99.90;;;;;;4198923;28;20049;-83
2023/09/10 06:04:14;;;;;;;19.95;14.38;;;17.20;99.90;;;;;;4233410;28;20040;-84
2023/09/10 06:06:15;;;;;;;17.88;13.93;;;17.20;99.90;;;;;;4233550;28;20402;-82
2023/09/10 06:08:16;;;;;;;17.88;14.20;;;17.20;99.90;;;;;;4215250;28;20089;-82
2023/09/10 06:10:16;;;;;;;17.38;13.90;;;17.20;99.90;;;;;;4233652;28;20035;-82
2023/09/10 06:12:17;;;;;;;18.67;14.73;;;17.30;99.90;;;;;;4233484;28;20039;-82
2023/09/10 06:14:18;;;;;;;16.05;13.80;;;17.30;99.90;;;;;;4215106;28;20177;-82
2023/09/10 06:16:19;;;;;;;19.40;14.93;;;17.30;99.90;;;;;;4233024;28;20078;-82
2023/09/10 06:18:19;;;;;;;19.38;15.35;;;17.30;99.90;;;;;;4233040;28;20120;-82
2023/09/10 06:20:21;;;;;;;18.55;14.82;;;17.40;99.90;;;;;;4215239;28;20122;-82
2023/09/10 06:22:22;;;;;;;17.92;13.98;;;17.40;99.90;;;;;;4233288;28;20122;-83
2023/09/10 06:24:23;;;;;;;16.98;14.35;;;17.40;99.90;;;;;;4232833;28;20484;-84
2023/09/10 06:26:24;;;;;;;16.08;13.15;;;17.50;99.90;;;;;;4249298;27;20490;-84
2023/09/10 06:28:26;;;;;;;14.75;13.05;;;17.50;99.90;;;;;;4250620;27;20049;-84
2023/09/10 06:30:26;;;;;;;16.08;13.20;;;17.60;99.90;;;;;;4250094;27;20035;-83
2023/09/10 06:32:28;;;;;;;16.45;13.68;;;17.60;99.90;;;;;;4250631;27;20233;-84
2023/09/10 06:34:29;;;;;;;16.02;13.90;;;17.70;99.90;;;;;;4251414;27;20054;-83
2023/09/10 06:36:30;;;;;;;15.50;13.15;;;17.80;99.90;;;;;;4232501;28;20469;-84
2023/09/10 06:38:30;;;;;;;15.18;13.57;;;17.90;99.90;;;;;;4252264;27;20495;-83
2023/09/10 06:40:31;;;;;;;15.77;13.65;;;18.00;99.90;;;;;;4250235;27;20122;-83
2023/09/10 06:42:32;;;;;;;18.38;14.32;;;18.00;99.90;;;;;;4231303;28;20054;-83
2023/09/10 06:44:33;;;;;;;15.75;13.18;;;18.10;99.90;;;;;;4250189;27;20506;-83
2023/09/10 06:46:33;;;;;;;13.70;12.30;;;18.20;99.90;;;;;;4250125;27;20047;-83
2023/09/10 06:48:34;;;;;;;13.68;12.27;;;19.10;99.90;;;;;;4249945;27;20088;-84
2023/09/10 06:50:35;;;;;;;14.95;13.20;;;18.40;99.90;;;;;;4249429;27;20050;-84
2023/09/10 06:52:35;;;;;;;14.30;12.20;;;18.60;99.90;;;;;;4249605;27;20039;-84
2023/09/10 06:54:36;;;;;;;16.67;13.05;;;18.70;99.90;;;;;;4249810;27;20513;-82
2023/09/10 06:56:37;;;;;;;14.60;13.07;;;18.80;99.90;;;;;;4249438;27;20117;-81
2023/09/10 06:58:38;;;;;;;15.57;13.70;;;19.00;99.90;;;;;;4249868;27;20093;-82
2023/09/10 07:00:38;;;;;;;15.40;13.75;;;19.10;99.90;;;;;;4249945;27;20055;-82
2023/09/10 07:02:39;;;;;;;17.33;13.50;;;19.20;99.90;;;;;;4249868;27;20039;-84
2023/09/10 07:04:47;;;;;;;18.48;14.95;;;19.30;99.90;;;;;;4249687;27;20172;-81
2023/09/10 07:06:49;;;;;;;17.88;15.18;;;19.40;99.90;;;;;;4249646;27;20395;-82
2023/09/10 07:08:51;;;;;;;18.98;14.73;;;19.60;99.90;;;;;;4249778;27;20067;-82
2023/09/10 07:10:52;;;;;;;19.33;16.45;;;19.70;99.90;;;;;;4249510;27;20498;-82
2023/09/10 07:12:52;;;;;;;26.88;18.77;;;19.80;99.90;;;;;;4249133;27;20051;-82
2023/09/10 07:14:55;;;;;;;30.88;20.55;;;19.90;99.90;;;;;;4249422;27;20399;-81
2023/09/10 07:16:56;;;;;;;28.52;19.27;;;20.10;99.90;;;;;;4249489;27;20047;-82
2023/09/10 07:18:57;;;;;;;30.45;19.13;;;20.20;99.90;;;;;;4248783;27;20137;-82
2023/09/10 07:21:02;;;;;;;26.85;18.50;;;20.30;99.90;;;;;;4197416;28;20447;-82
2023/09/10 07:23:03;;;;;;;26.80;19.25;;;20.40;99.90;;;;;;4249364;27;20031;-82
2023/09/10 07:25:05;;;;;;;26.30;18.70;;;20.60;99.90;;;;;;4249379;27;20065;-82
2023/09/10 07:27:06;;;;;;;29.33;18.20;;;20.80;99.90;;;;;;4249254;27;20061;-81
2023/09/10 07:29:08;;;;;;;24.88;17.38;;;20.90;99.90;;;;;;4249101;27;20074;-81
2023/09/10 07:31:09;;;;;;;26.60;17.95;;;21.00;99.90;;;;;;4230127;28;20055;-82
2023/09/10 07:33:10;;;;;;;22.88;16.75;;;21.10;99.90;;;;;;4230675;28;20449;-82
2023/09/10 07:35:11;;;;;;;24.85;16.75;;;21.50;99.90;;;;;;4249442;27;20043;-82
2023/09/10 07:37:11;;;;;;;23.33;17.13;;;21.30;99.90;;;;;;4230567;28;20043;-82
2023/09/10 07:39:14;;;;;;;21.90;16.30;;;21.50;99.90;;;;;;4249066;27;20043;-82
2023/09/10 07:41:15;;;;;;;26.20;18.70;;;21.60;99.90;;;;;;4248538;27;20376;-82
2023/09/10 07:43:15;;;;;;;22.45;17.15;;;21.60;99.90;;;;;;4249042;27;20095;-81
2023/09/10 07:45:16;;;;;;;27.55;17.23;;;21.70;99.90;;;;;;4230423;28;20098;-81
2023/09/10 07:47:17;;;;;;;24.35;17.65;;;21.90;99.90;;;;;;4248816;27;20449;-84
2023/09/10 07:49:18;;;;;;;23.08;16.75;;;22.10;99.90;;;;;;4248479;27;20465;-82
2023/09/10 07:51:18;;;;;;;22.15;16.48;;;22.30;99.90;;;;;;4248531;27;20054;-82
2023/09/10 07:53:19;;;;;;;23.15;17.20;;;22.40;99.90;;;;;;4231766;28;20535;-82
2023/09/10 07:55:21;;;;;;;26.13;17.67;;;22.60;99.90;;;;;;4230374;28;20052;-82
2023/09/10 07:57:24;;;;;;;25.55;18.17;;;22.80;99.90;;;;;;4248508;27;20114;-82
2023/09/10 07:59:25;;;;;;;25.17;16.23;;;22.90;99.90;;;;;;4230487;28;20519;-82
2023/09/10 08:01:25;;;;;;;24.25;17.00;;;23.00;99.90;;;;;;4247944;27;20092;-82
2023/09/10 08:03:27;;;;;;;22.65;16.17;;;23.10;99.90;;;;;;4249943;27;20050;-82
2023/09/10 08:05:28;;;;;;;22.50;16.50;;;23.20;99.90;;;;;;4248988;27;20520;-82
2023/09/10 08:07:28;;;;;;;27.20;16.30;;;23.30;99.90;;;;;;4248603;27;20046;-82
2023/09/10 08:09:31;;;;;;;23.15;14.40;;;23.30;99.90;;;;;;4248997;27;20107;-82
2023/09/10 08:11:32;;;;;;;18.50;13.88;;;23.40;99.90;;;;;;4250600;27;20046;-83
2023/09/10 08:13:33;;;;;;;21.33;14.38;;;23.60;99.90;;;;;;4248610;27;20087;-82
2023/09/10 08:15:33;;;;;;;22.15;15.70;;;24.60;99.90;;;;;;4248218;27;20086;-82
2023/09/10 08:17:36;;;;;;;21.17;13.75;;;23.80;99.90;;;;;;4248458;27;20395;-82
2023/09/10 08:19:37;;;;;;;20.63;13.93;;;23.80;99.90;;;;;;4247850;27;20046;-82
2023/09/10 08:21:38;;;;;;;21.63;13.95;;;23.90;99.90;;;;;;4248640;27;20394;-82
2023/09/10 08:23:39;;;;;;;23.30;13.55;;;24.00;99.90;;;;;;4213258;28;20113;-82
2023/09/10 08:25:40;;;;;;;17.05;11.52;;;24.20;99.90;;;;;;4229951;28;20134;-83
2023/09/10 08:27:41;;;;;;;20.80;12.68;;;24.30;99.90;;;;;;4230434;28;20537;-82
2023/09/10 08:29:41;;;;;;;19.40;11.90;;;24.50;99.90;;;;;;4248364;27;20114;-83
2023/09/10 08:31:42;;;;;;;16.02;11.20;;;24.60;99.90;;;;;;4248389;27;20035;-83
2023/09/10 08:33:43;;;;;;;18.33;11.80;;;24.80;99.90;;;;;;4229303;28;20039;-82
2023/09/10 08:35:48;;;;;;;17.52;12.25;;;25.10;99.90;;;;;;4248612;27;20035;-83
2023/09/10 08:37:49;;;;;;;19.17;12.55;;;25.30;99.90;;;;;;4248164;27;20055;-83
2023/09/10 08:39:50;;;;;;;15.73;11.55;;;25.30;99.90;;;;;;4213193;28;20474;-82
2023/09/10 08:42:06;;;;;;;14.20;9.95;;;25.60;99.90;;;;;;4248085;27;20119;-82
2023/09/10 08:44:10;;;;;;;16.23;10.52;;;25.90;99.90;;;;;;4248982;27;20102;-83
2023/09/10 08:46:13;;;;;;;14.23;10.15;;;26.20;99.90;;;;;;4229930;28;20099;-82
2023/09/10 08:48:17;;;;;;;15.10;11.73;;;26.60;99.90;;;;;;4247802;27;20039;-82
2023/09/10 08:50:19;;;;;;;18.33;10.35;;;27.00;99.90;;;;;;4247681;27;20546;-82
2023/09/10 08:52:20;;;;;;;17.58;11.23;;;27.30;99.90;;;;;;4229795;28;20441;-82
2023/09/10 08:54:22;;;;;;;14.00;9.90;;;27.50;99.90;;;;;;4256658;27;20023;-83
2023/09/10 08:56:24;;;;;;;14.63;9.30;;;27.70;99.90;;;;;;4252748;27;20395;-82
2023/09/10 08:58:26;;;;;;;18.55;9.38;;;27.90;99.90;;;;;;4248477;28;20479;-82
2023/09/10 09:00:28;;;;;;;12.48;8.27;;;28.00;99.90;;;;;;4251021;28;20402;-83
2023/09/10 09:02:29;;;;;;;11.10;8.70;;;28.20;99.90;;;;;;4249797;28;20121;-83
2023/09/10 09:04:31;;;;;;;14.20;8.30;;;28.50;99.90;;;;;;4230871;28;20055;-83
2023/09/10 09:06:36;;;;;;;13.10;8.38;;;28.80;99.90;;;;;;4249884;28;20407;-83
2023/09/10 09:08:40;;;;;;;11.98;7.32;;;29.20;99.90;;;;;;4231230;28;20051;-83
2023/09/10 09:10:44;;;;;;;13.82;9.07;;;29.30;99.90;;;;;;4249536;28;20111;-83
2023/09/10 09:12:48;;;;;;;12.77;8.10;;;29.50;99.90;;;;;;4233228;28;20044;-83
2023/09/10 09:14:50;;;;;;;9.63;7.20;;;29.50;99.90;;;;;;4253584;27;20113;-83
2023/09/10 09:16:53;;;;;;;10.45;6.45;;;29.70;99.90;;;;;;4234376;28;20118;-83
2023/09/10 09:18:55;;;;;;;12.70;5.55;;;29.80;99.90;;;;;;4252353;27;20043;-83
2023/09/10 09:21:01;;;;;;;11.38;7.50;;;29.90;99.90;;;;;;4252892;27;20107;-83
2023/09/10 09:23:12;;;;;;;9.45;6.30;;;30.10;99.90;;;;;;4252888;27;20039;-83
2023/09/10 09:25:14;;;;;;;8.70;6.78;;;30.20;99.90;;;;;;4252831;27;20054;-83
2023/09/10 09:27:15;;;;;;;13.57;8.38;;;30.40;99.90;;;;;;4253108;27;20043;-83
2023/09/10 09:29:16;;;;;;;11.95;8.25;;;30.30;99.80;;;;;;4251357;27;20054;-83
2023/09/10 09:31:23;;;;;;;11.75;6.95;;;30.40;99.80;;;;;;4232908;28;20479;-83
2023/09/10 09:33:24;;;;;;;12.90;6.57;;;30.50;99.60;;;;;;4251353;27;20449;-83
2023/09/10 09:35:25;;;;;;;13.50;7.03;;;30.80;99.50;;;;;;4250770;27;20039;-83
2023/09/10 09:37:26;;;;;;;9.18;6.97;;;30.90;99.70;;;;;;4250478;27;20095;-83
2023/09/10 09:39:29;;;;;;;9.90;6.40;;;30.90;99.20;;;;;;4250791;27;20047;-83
2023/09/10 09:41:34;;;;;;;13.75;7.45;;;30.90;99.20;;;;;;4250912;27;20047;-83
2023/09/10 09:43:35;;;;;;;13.02;8.10;;;31.00;99.70;;;;;;4251349;27;20584;-82
2023/09/10 09:45:36;;;;;;;11.95;8.05;;;31.00;99.50;;;;;;4251121;27;20099;-82
2023/09/10 09:47:37;;;;;;;13.75;7.70;;;30.80;99.30;;;;;;4251085;27;20047;-83
2023/09/10 09:49:44;;;;;;;9.00;6.20;;;30.70;99.10;;;;;;4231973;28;20050;-83
2023/09/10 09:51:45;;;;;;;10.30;7.10;;;30.80;99.30;;;;;;4250794;27;20114;-83
2023/09/10 09:53:46;;;;;;;11.82;7.43;;;31.10;99.90;;;;;;4250867;27;20050;-83
2023/09/10 09:55:47;;;;;;;10.40;7.03;;;30.90;99.30;;;;;;4250567;27;20038;-83
2023/09/10 09:57:51;;;;;;;11.60;6.50;;;30.80;99.90;;;;;;4232198;28;20047;-83
2023/09/10 09:59:52;;;;;;;13.80;6.78;;;31.00;99.60;;;;;;4250841;27;20082;-83
2023/09/10 10:01:52;;;;;;;12.85;7.40;;;30.90;99.30;;;;;;4250688;27;20043;-83
2023/09/10 10:03:53;;;;;;;14.30;7.70;;;30.90;99.20;;;;;;4250649;27;20035;-83
2023/09/10 10:05:55;;;;;;;10.95;7.75;;;30.90;98.80;;;;;;4250196;27;20376;-83
2023/09/10 10:07:56;;;;;;;9.45;7.05;;;30.80;98.80;;;;;;4250214;27;20046;-83
2023/09/10 10:09:59;;;;;;;13.13;7.60;;;30.70;99.20;;;;;;4250604;27;20506;-83
2023/09/10 10:12:00;;;;;;;14.68;8.27;;;30.40;99.10;;;;;;4250578;27;20126;-83
2023/09/10 10:14:02;;;;;;;12.93;8.30;;;30.20;99.20;;;;;;4250321;27;20046;-83
2023/09/10 10:16:04;;;;;;;12.38;7.60;;;30.10;99.10;;;;;;4250237;27;20134;-83
2023/09/10 10:18:06;;;;;;;16.73;8.38;;;30.10;98.90;;;;;;4249920;27;20386;-83
2023/09/10 10:20:08;;;;;;;11.45;6.65;;;30.30;99.00;;;;;;4231905;28;20031;-83